Погода Иерапетрана неделю

Крит, Греция

04 - 10 сентября
  • 04сентября
    Сегодня
    +24°
    +33°
    Ясно и безоблачно
    ВремяПогодаТемператураВлажностьДавлениеВетер, м/сВероятность осадков
    00:00Ясно и безоблачно+27°C50 %756 мм3.0 м/с2 %
    03:00Ясно и безоблачно+26°C54 %755 мм1.5 м/с2 %
    06:00Ясно и безоблачно+26°C57 %755 мм2.4 м/с2 %
    09:00Ясно и безоблачно+28°C55 %756 мм4.4 м/с2 %
    12:00Ясно и безоблачно+31°C49 %756 мм2.7 м/с2 %
    15:00Ясно и безоблачно+32°C49 %756 мм2.1 м/с2 %
    18:00Ясно и безоблачно+31°C49 %756 мм3.1 м/с2 %
    21:00Ясно и безоблачно+26°C56 %757 мм4.8 м/с2 %
  • 05сентября
    Суббота
    +23°
    +33°
    Ясно и безоблачно
    ВремяПогодаТемператураВлажностьДавлениеВетер, м/сВероятность осадков
    00:00Ясно и безоблачно+26°C60 %757 мм3.7 м/с2 %
    03:00Ясно и безоблачно+25°C63 %757 мм3.3 м/с2 %
    06:00Ясно и безоблачно+25°C68 %757 мм3.7 м/с2 %
    09:00Ясно и безоблачно+28°C56 %757 мм4.4 м/с2 %
    12:00Ясно и безоблачно+31°C50 %758 мм1.5 м/с2 %
    15:00Ясно и безоблачно+33°C51 %758 мм0.7 м/с2 %
    18:00Ясно и безоблачно+32°C50 %758 мм3.4 м/с2 %
    21:00Ясно и безоблачно+27°C53 %759 мм3.8 м/с2 %
  • 06сентября
    Воскресенье
    +25°
    +34°
    Ясно и безоблачно
    ВремяПогодаТемператураВлажностьДавлениеВетер, м/сВероятность осадков
    00:00Ясно и безоблачно+25°C58 %759 мм3.9 м/с2 %
    03:00Ясно и безоблачно+25°C50 %759 мм3.6 м/с2 %
    06:00Ясно и безоблачно+24°C54 %759 мм3.7 м/с2 %
    09:00Ясно и безоблачно+29°C40 %759 мм3.2 м/с2 %
    12:00Ясно и безоблачно+33°C34 %760 мм3.5 м/с2 %
    15:00Ясно и безоблачно+34°C40 %759 мм1.7 м/с2 %
    18:00Ясно и безоблачно+32°C50 %759 мм1.6 м/с2 %
    21:00Ясно и безоблачно+27°C47 %760 мм2.6 м/с2 %
  • 07сентября
    Понедельник
    +25°
    +36°
    Ясно и безоблачно
    ВремяПогодаТемператураВлажностьДавлениеВетер, м/сВероятность осадков
    00:00Ясно и безоблачно+26°C49 %760 мм2.3 м/с2 %
    03:00Ясно и безоблачно+26°C51 %759 мм2.5 м/с2 %
    06:00Ясно и безоблачно+27°C48 %758 мм4.4 м/с2 %
    09:00Ясно и безоблачно+32°C36 %759 мм6.3 м/с2 %
    12:00Ясно и безоблачно+35°C28 %759 мм9.6 м/с2 %
    15:00Ясно и безоблачно+36°C26 %759 мм10.2 м/с2 %
    18:00Ясно и безоблачно+33°C29 %758 мм9.5 м/с2 %
    21:00Ясно и безоблачно+29°C37 %759 мм7.9 м/с2 %
  • 08сентября
    Вторник
    +22°
    +33°
    Ясно и безоблачно
    ВремяПогодаТемператураВлажностьДавлениеВетер, м/сВероятность осадков
    00:00Ясно и безоблачно+28°C44 %758 мм6.7 м/с2 %
    03:00Ясно и безоблачно+27°C52 %758 мм5.9 м/с2 %
    06:00Ясно и безоблачно+26°C59 %757 мм5.8 м/с2 %
    09:00Ясно и безоблачно+29°C47 %757 мм6.1 м/с2 %
    12:00Ясно и безоблачно+33°C33 %758 мм3.3 м/с2 %
    15:00Ясно и безоблачно+33°C40 %757 мм1.8 м/с2 %
    18:00Ясно и безоблачно+31°C30 %756 мм4.5 м/с2 %
    21:00Ясно и безоблачно+26°C42 %756 мм4.5 м/с2 %
  • 09сентября
    Среда
    +20°
    +32°
    Ясно и безоблачно
    ВремяПогодаТемператураВлажностьДавлениеВетер, м/сВероятность осадков
    03:00Ясно и безоблачно+23°C53 %755 мм2.7 м/с2 %
    09:00Ясно и безоблачно+27°C48 %756 мм2.1 м/с2 %
    15:00Ясно и безоблачно+32°C50 %755 мм1.9 м/с2 %
    21:00Ясно и безоблачно+25°C59 %756 мм2.7 м/с2 %
  • 10сентября
    Четверг
    +21°
    +32°
    Ясно и безоблачно
    ВремяПогодаТемператураВлажностьДавлениеВетер, м/сВероятность осадков
    03:00Ясно и безоблачно+21°C61 %756 мм2.1 м/с2 %
    09:00Ясно и безоблачно+25°C62 %758 мм1.8 м/с2 %
    15:00Ясно и безоблачно+31°C64 %758 мм3.8 м/с2 %
    21:00Ясно и безоблачно+25°C74 %758 мм1.7 м/с6 %
Мы используем cookies
Соглашаюсь